Time;durP1;ratioP1;P1;durP2;ratioP2;P2;SDS_P1;SDS_P2;PMS_P1;PMS_P2;Temp;Humidity;BMP_temperature;BMP_pressure;BME280_temperature;BME280_humidity;BME280_pressure;Samples;Min_cycle;Max_cycle;Signal;HPM_P1;HPM_P2
2023/08/05 00:00:08;;;;;;;;;;;;;;;16.65;53.52;100347.13;5071843;28;1182;-61
2023/08/05 00:02:34;;;;;;;;;;;;;;;16.75;53.44;100356.13;5077031;28;1023;-61
2023/08/05 00:05:00;;;;;;;;;;;;;;;16.65;53.73;100358.97;5089919;28;1130;-62
2023/08/05 00:07:25;;;;;;;;;;;;;;;16.72;53.56;100359.47;5085359;28;1209;-62
2023/08/05 00:09:51;;;;;;;;;;;;;;;16.65;53.70;100360.88;5080806;28;1126;-62
2023/08/05 00:12:16;;;;;;;;;;;;;;;16.70;53.40;100358.09;5076765;28;1106;-61
2023/08/05 00:14:42;;;;;;;;;;;;;;;16.63;53.56;100360.34;5081342;28;1031;-61
2023/08/05 00:17:07;;;;;;;;;;;;;;;16.68;53.54;100365.81;5096248;28;1957;-61
2023/08/05 00:19:33;;;;;;;;;;;;;;;16.60;53.75;100365.28;5081496;28;1093;-62
2023/08/05 00:21:58;;;;;;;;;;;;;;;16.66;53.50;100362.50;5075957;28;1094;-61
2023/08/05 00:24:24;;;;;;;;;;;;;;;16.63;53.43;100361.16;5089249;28;994;-62
2023/08/05 00:26:49;;;;;;;;;;;;;;;16.62;53.63;100362.28;5084685;28;1095;-61
2023/08/05 00:29:16;;;;;;;;;;;;;;;16.60;53.78;100365.28;5094828;28;1115;-61
2023/08/05 00:31:41;;;;;;;;;;;;;;;16.60;53.71;100356.25;5084819;28;1146;-61
2023/08/05 00:34:07;;;;;;;;;;;;;;;16.58;53.42;100356.53;5095064;28;1097;-61
2023/08/05 00:36:32;;;;;;;;;;;;;;;16.60;53.40;100350.75;5080216;28;1918;-61
2023/08/05 00:38:58;;;;;;;;;;;;;;;16.53;53.69;100351.06;5093916;28;1103;-61
2023/08/05 00:41:23;;;;;;;;;;;;;;;16.54;53.73;100349.16;5080019;28;1134;-61
2023/08/05 00:43:49;;;;;;;;;;;;;;;16.58;53.37;100344.75;5093892;28;1202;-61
2023/08/05 00:46:16;;;;;;;;;;;;;;;16.55;53.58;100351.59;5092697;28;991;-61
2023/08/05 00:48:42;;;;;;;;;;;;;;;16.55;53.44;100346.13;5067912;28;1009;-61
2023/08/05 00:51:07;;;;;;;;;;;;;;;16.60;53.48;100346.06;5087229;28;1046;-61
2023/08/05 00:53:36;;;;;;;;;;;;;;;16.57;53.38;100343.09;5085312;28;1118;-61
2023/08/05 00:56:02;;;;;;;;;;;;;;;16.57;53.45;100351.31;5061783;28;1971;-61
2023/08/05 00:58:31;;;;;;;;;;;;;;;16.55;53.71;100348.03;5073966;28;1095;-61
2023/08/05 01:00:56;;;;;;;;;;;;;;;16.50;53.79;100348.06;5082002;28;1038;-61
2023/08/05 01:03:22;;;;;;;;;;;;;;;16.52;53.58;100343.09;5098147;28;1054;-61
2023/08/05 01:05:48;;;;;;;;;;;;;;;16.53;53.45;100348.31;5073687;28;1039;-61
2023/08/05 01:08:13;;;;;;;;;;;;;;;17.23;54.49;100338.22;5061544;28;1071;-60
2023/08/05 01:10:39;;;;;;;;;;;;;;;17.55;55.22;100334.88;5087511;28;1127;-61
2023/08/05 01:13:04;;;;;;;;;;;;;;;17.21;55.05;100338.53;5099442;28;1026;-61
2023/08/05 01:15:30;;;;;;;;;;;;;;;17.02;55.19;100337.59;5095095;28;1905;-62
2023/08/05 01:17:55;;;;;;;;;;;;;;;16.98;54.92;100337.31;5081235;28;1286;-63
2023/08/05 01:20:26;;;;;;;;;;;;;;;16.95;54.50;100328.84;5081447;28;1331;-62
2023/08/05 01:22:53;;;;;;;;;;;;;;;16.85;54.46;100322.28;5081027;28;1106;-62
2023/08/05 01:25:31;;;;;;;;;;;;;;;16.82;54.29;100328.38;5090971;28;1118;-62
2023/08/05 01:27:57;;;;;;;;;;;;;;;16.84;54.23;100319.84;5074852;28;1127;-62
2023/08/05 01:30:23;;;;;;;;;;;;;;;16.81;54.15;100323.16;5089907;28;1209;-63
2023/08/05 01:32:49;;;;;;;;;;;;;;;16.77;53.97;100326.50;5085945;28;1150;-62
2023/08/05 01:35:14;;;;;;;;;;;;;;;16.67;54.12;100315.56;5070653;28;1910;-62
2023/08/05 01:37:40;;;;;;;;;;;;;;;16.73;53.77;100316.34;5064971;28;1054;-62
2023/08/05 01:40:06;;;;;;;;;;;;;;;16.70;53.96;100312.25;5088839;28;1543;-62
2023/08/05 01:42:31;;;;;;;;;;;;;;;16.73;53.76;100310.84;5074441;28;1221;-62
2023/08/05 01:44:57;;;;;;;;;;;;;;;16.76;53.64;100304.81;5061029;28;1158;-63
2023/08/05 01:47:22;;;;;;;;;;;;;;;16.70;53.46;100306.75;5073284;28;1059;-62
2023/08/05 01:49:49;;;;;;;;;;;;;;;16.70;53.68;100303.19;5071386;28;1183;-62
2023/08/05 01:52:14;;;;;;;;;;;;;;;16.68;53.61;100302.66;5079717;28;1150;-62
2023/08/05 01:54:40;;;;;;;;;;;;;;;16.69;53.69;100296.06;5088284;28;1046;-62
2023/08/05 01:57:06;;;;;;;;;;;;;;;16.65;53.59;100306.81;5095631;28;1975;-62
2023/08/05 01:59:32;;;;;;;;;;;;;;;16.67;53.34;100299.09;5070290;28;1217;-64
2023/08/05 02:01:58;;;;;;;;;;;;;;;16.65;53.65;100306.81;5063003;28;1296;-63
2023/08/05 02:04:23;;;;;;;;;;;;;;;16.63;53.45;100292.53;5091495;28;1272;-63
2023/08/05 02:06:49;;;;;;;;;;;;;;;16.57;53.86;100290.94;5077425;28;1115;-62
2023/08/05 02:09:15;;;;;;;;;;;;;;;16.61;53.63;100292.00;5071662;28;1650;-64
2023/08/05 02:11:40;;;;;;;;;;;;;;;16.59;53.58;100295.03;5095989;28;1166;-63
2023/08/05 02:14:06;;;;;;;;;;;;;;;16.63;53.57;100287.03;5069565;28;1135;-62
2023/08/05 02:16:34;;;;;;;;;;;;;;;16.58;53.55;100295.34;5077700;28;1901;-63
2023/08/05 02:19:00;;;;;;;;;;;;;;;16.56;53.85;100300.28;5078152;28;1130;-65
2023/08/05 02:21:25;;;;;;;;;;;;;;;16.62;53.37;100301.88;5077944;28;1047;-64
2023/08/05 02:23:52;;;;;;;;;;;;;;;16.67;53.39;100296.34;5070562;28;1122;-64
2023/08/05 02:26:19;;;;;;;;;;;;;;;16.56;53.64;100292.03;5065245;28;945;-64
2023/08/05 02:28:44;;;;;;;;;;;;;;;16.56;53.48;100289.28;5098291;28;1120;-64
2023/08/05 02:31:11;;;;;;;;;;;;;;;16.60;53.32;100299.41;5066504;28;1154;-64
2023/08/05 02:33:36;;;;;;;;;;;;;;;16.55;53.70;100301.38;5069091;28;1139;-64
2023/08/05 02:36:02;;;;;;;;;;;;;;;16.56;53.68;100297.53;5064084;28;1976;-64
2023/08/05 02:38:28;;;;;;;;;;;;;;;16.57;53.60;100296.44;5097735;28;873;-64
2023/08/05 02:40:54;;;;;;;;;;;;;;;16.51;53.73;100300.28;5097157;28;1165;-64
2023/08/05 02:43:19;;;;;;;;;;;;;;;16.59;53.51;100303.28;5098068;28;1003;-64
2023/08/05 02:45:51;;;;;;;;;;;;;;;16.56;53.61;100309.34;5094698;28;1102;-64
2023/08/05 02:48:16;;;;;;;;;;;;;;;16.55;53.51;100301.38;5070455;28;1107;-64
2023/08/05 02:50:42;;;;;;;;;;;;;;;16.53;53.42;100298.09;5079839;28;1138;-64
2023/08/05 02:53:07;;;;;;;;;;;;;;;16.55;53.50;100306.84;5088565;28;1105;-64
2023/08/05 02:55:33;;;;;;;;;;;;;;;16.49;53.46;100305.25;5080374;28;1906;-64
2023/08/05 02:57:59;;;;;;;;;;;;;;;16.48;53.49;100304.44;5076618;28;1120;-64
2023/08/05 03:00:24;;;;;;;;;;;;;;;16.64;54.14;100307.91;5072939;28;1079;-64
2023/08/05 03:02:50;;;;;;;;;;;;;;;17.79;54.69;100306.59;5091846;28;865;-64
2023/08/05 03:05:15;;;;;;;;;;;;;;;17.36;54.89;100304.59;5079430;28;1186;-64
2023/08/05 03:07:41;;;;;;;;;;;;;;;17.04;55.30;100297.75;5059602;28;1209;-64
2023/08/05 03:10:07;;;;;;;;;;;;;;;17.01;54.94;100301.06;5072638;28;1532;-60
2023/08/05 03:12:32;;;;;;;;;;;;;;;16.98;54.52;100301.63;5070575;28;1151;-62
2023/08/05 03:14:58;;;;;;;;;;;;;;;16.88;54.58;100293.44;5061564;28;1993;-61
2023/08/05 03:17:23;;;;;;;;;;;;;;;16.86;54.42;100288.25;5088344;28;1328;-61
2023/08/05 03:19:52;;;;;;;;;;;;;;;16.84;54.33;100301.44;5083274;28;1134;-61
2023/08/05 03:22:18;;;;;;;;;;;;;;;16.82;54.16;100292.66;5067163;28;1142;-61
2023/08/05 03:24:45;;;;;;;;;;;;;;;16.85;53.98;100305.00;5077300;28;1909;-61
2023/08/05 03:27:11;;;;;;;;;;;;;;;16.76;54.19;100300.13;5078835;28;1121;-60
2023/08/05 03:29:38;;;;;;;;;;;;;;;16.79;53.95;100306.13;5077903;28;1289;-61
2023/08/05 03:32:05;;;;;;;;;;;;;;;16.76;53.90;100302.06;5078460;28;1332;-61
2023/08/05 03:34:30;;;;;;;;;;;;;;;16.72;53.97;100301.81;5069353;28;1190;-61
2023/08/05 03:36:57;;;;;;;;;;;;;;;16.69;54.03;100296.91;5061374;28;1914;-65
2023/08/05 03:39:23;;;;;;;;;;;;;;;16.69;53.95;100296.91;5072784;28;1342;-64
2023/08/05 03:41:48;;;;;;;;;;;;;;;16.72;54.06;100299.06;5085490;28;1130;-60
2023/08/05 03:44:14;;;;;;;;;;;;;;;16.75;53.84;100303.16;5094774;28;1146;-64
2023/08/05 03:46:40;;;;;;;;;;;;;;;16.73;53.99;100297.13;5096736;28;1034;-64
2023/08/05 03:49:05;;;;;;;;;;;;;;;16.71;54.03;100297.41;5077930;28;1213;-64
2023/08/05 03:51:31;;;;;;;;;;;;;;;16.69;53.98;100296.06;5066523;28;885;-64
2023/08/05 03:54:01;;;;;;;;;;;;;;;16.69;54.09;100305.13;5064111;28;1118;-64
2023/08/05 03:56:27;;;;;;;;;;;;;;;16.65;54.13;100298.56;5071419;28;1980;-65
2023/08/05 03:58:54;;;;;;;;;;;;;;;16.72;54.07;100296.31;5078186;28;1328;-65
2023/08/05 04:01:21;;;;;;;;;;;;;;;16.68;54.09;100292.50;5096778;28;1292;-60
2023/08/05 04:03:50;;;;;;;;;;;;;;;16.69;53.84;100296.06;5096460;28;884;-59
2023/08/05 04:06:16;;;;;;;;;;;;;;;16.68;54.01;100289.75;5096667;28;1030;-64
2023/08/05 04:08:42;;;;;;;;;;;;;;;16.67;53.98;100285.34;5078360;28;1158;-61
2023/08/05 04:11:08;;;;;;;;;;;;;;;16.67;54.09;100288.09;5096376;28;1014;-64
2023/08/05 04:13:37;;;;;;;;;;;;;;;16.69;54.02;100285.91;5093870;28;2511;-65
2023/08/05 04:16:03;;;;;;;;;;;;;;;16.67;54.19;100282.63;5067567;28;1897;-66
2023/08/05 04:18:30;;;;;;;;;;;;;;;16.67;54.03;100282.63;5065249;28;1897;-66
2023/08/05 04:20:57;;;;;;;;;;;;;;;16.65;54.02;100286.75;5095756;28;1954;-67
2023/08/05 04:23:24;;;;;;;;;;;;;;;16.68;54.19;100278.78;5093753;28;2094;-66
2023/08/05 04:25:50;;;;;;;;;;;;;;;16.68;54.16;100283.47;5077448;28;1885;-66
2023/08/05 04:28:16;;;;;;;;;;;;;;;16.76;53.91;100286.41;5095777;28;1931;-66
2023/08/05 04:30:41;;;;;;;;;;;;;;;16.68;54.24;100286.19;5095844;28;1018;-65
2023/08/05 04:33:08;;;;;;;;;;;;;;;16.70;54.11;100279.28;5096269;28;1135;-64
2023/08/05 04:35:34;;;;;;;;;;;;;;;16.66;54.28;100282.91;5095345;28;1988;-63
2023/08/05 04:38:00;;;;;;;;;;;;;;;16.67;54.04;100285.34;5095279;28;1217;-65
2023/08/05 04:40:25;;;;;;;;;;;;;;;16.54;54.48;100258.56;5095273;28;1260;-65
2023/08/05 04:42:51;;;;;;;;;;;;;;;16.64;54.43;100283.19;5095600;28;1159;-65
2023/08/05 04:45:16;;;;;;;;;;;;;;;16.65;54.14;100284.84;5095640;28;1198;-66
2023/08/05 04:47:42;;;;;;;;;;;;;;;16.69;55.90;100285.91;5095449;28;1186;-66
2023/08/05 04:50:08;;;;;;;;;;;;;;;17.56;55.01;100289.00;5093175;28;1202;-64
2023/08/05 04:52:33;;;;;;;;;;;;;;;16.85;54.57;100294.03;5095159;28;1194;-64
2023/08/05 04:55:06;;;;;;;;;;;;;;;16.76;53.03;100300.13;5095379;28;1914;-64
2023/08/05 04:57:32;;;;;;;;;;;;;;;17.27;53.66;100307.13;5094864;28;1830;-67
2023/08/05 04:59:57;;;;;;;;;;;;;;;17.07;53.39;100302.66;5096027;28;1110;-63
2023/08/05 05:02:23;;;;;;;;;;;;;;;16.90;52.08;100300.31;5094699;28;1327;-67
2023/08/05 05:04:48;;;;;;;;;;;;;;;16.88;51.03;100294.28;5095784;28;1078;-67
2023/08/05 05:07:14;;;;;;;;;;;;;;;16.89;50.22;100306.09;5095165;28;1066;-66
2023/08/05 05:09:39;;;;;;;;;;;;;;;17.40;51.63;100311.16;5095332;28;1205;-66
2023/08/05 05:12:05;;;;;;;;;;;;;;;17.44;52.08;100311.38;5095219;28;1117;-66
2023/08/05 05:14:31;;;;;;;;;;;;;;;17.14;51.28;100313.31;5094975;28;1188;-67
2023/08/05 05:16:56;;;;;;;;;;;;;;;17.18;49.96;100313.53;5095041;28;1964;-66
2023/08/05 05:19:22;;;;;;;;;;;;;;;17.09;49.52;100314.16;5093827;28;938;-67
2023/08/05 05:21:47;;;;;;;;;;;;;;;17.07;49.26;100310.88;5097015;28;1110;-67
2023/08/05 05:24:13;;;;;;;;;;;;;;;17.03;48.95;100298.84;5098734;28;1105;-66
2023/08/05 05:26:38;;;;;;;;;;;;;;;17.05;48.50;100301.28;5098252;28;1086;-67
2023/08/05 05:29:04;;;;;;;;;;;;;;;17.06;48.29;100306.50;5099415;28;2770;-66
2023/08/05 05:31:30;;;;;;;;;;;;;;;17.07;48.06;100299.91;5098743;28;1083;-63
2023/08/05 05:33:55;;;;;;;;;;;;;;;17.02;48.16;100297.19;5098282;28;1114;-63
2023/08/05 05:36:21;;;;;;;;;;;;;;;17.05;48.05;100304.84;5099436;28;1898;-63
2023/08/05 05:38:46;;;;;;;;;;;;;;;17.06;47.83;100295.50;5098726;28;1424;-64
2023/08/05 05:41:12;;;;;;;;;;;;;;;17.03;47.62;100296.09;5098779;28;1086;-63
2023/08/05 05:43:38;;;;;;;;;;;;;;;17.03;47.86;100293.34;5098388;28;1062;-64
2023/08/05 05:46:04;;;;;;;;;;;;;;;17.13;47.52;100289.69;5098835;28;1197;-63
2023/08/05 05:48:30;;;;;;;;;;;;;;;17.18;47.35;100297.88;5098188;28;1124;-63
2023/08/05 05:50:55;;;;;;;;;;;;;;;17.10;47.33;100296.56;5098096;28;1074;-64
2023/08/05 05:53:21;;;;;;;;;;;;;;;17.10;47.56;100295.75;5098270;28;1019;-64
2023/08/05 05:55:49;;;;;;;;;;;;;;;17.17;47.40;100287.19;5098645;28;1996;-64
2023/08/05 05:58:15;;;;;;;;;;;;;;;17.22;47.32;100282.47;5098251;28;2339;-64
2023/08/05 06:00:41;;;;;;;;;;;;;;;17.14;47.28;100279.50;5098418;28;1189;-66
2023/08/05 06:03:06;;;;;;;;;;;;;;;17.18;47.20;100275.06;5097909;28;1066;-65
2023/08/05 06:05:32;;;;;;;;;;;;;;;17.16;47.31;100277.31;5097540;28;1165;-66
2023/08/05 06:07:57;;;;;;;;;;;;;;;17.22;47.28;100270.63;5098063;28;983;-65
2023/08/05 06:10:23;;;;;;;;;;;;;;;17.19;47.35;100282.22;5097885;28;1034;-65
2023/08/05 06:12:49;;;;;;;;;;;;;;;17.22;47.27;100287.13;5098078;28;1093;-65
2023/08/05 06:15:15;;;;;;;;;;;;;;;17.23;47.45;100288.75;5097396;28;1972;-65
2023/08/05 06:17:40;;;;;;;;;;;;;;;17.26;47.25;100288.19;5097745;28;1552;-66
2023/08/05 06:20:06;;;;;;;;;;;;;;;17.21;47.28;100280.00;5086597;28;1089;-66
2023/08/05 06:22:32;;;;;;;;;;;;;;;17.20;47.43;100283.84;5098084;28;1105;-65
2023/08/05 06:24:57;;;;;;;;;;;;;;;17.23;47.28;100289.56;5097693;28;1232;-66
2023/08/05 06:27:23;;;;;;;;;;;;;;;17.23;47.11;100297.00;5095453;28;1824;-67
2023/08/05 06:29:48;;;;;;;;;;;;;;;17.22;47.17;100289.88;5091227;28;992;-66
2023/08/05 06:32:14;;;;;;;;;;;;;;;17.29;47.17;100287.59;5097295;28;1010;-68
2023/08/05 06:34:40;;;;;;;;;;;;;;;17.30;47.12;100288.44;5097692;28;1031;-64
2023/08/05 06:37:05;;;;;;;;;;;;;;;17.34;47.07;100282.06;5097451;28;1979;-64
2023/08/05 06:39:33;;;;;;;;;;;;;;;17.37;46.76;100283.41;5097399;28;1122;-64
2023/08/05 06:41:58;;;;;;;;;;;;;;;17.34;47.04;100281.25;5097277;28;1085;-64
2023/08/05 06:44:27;;;;;;;;;;;;;;;17.40;46.83;100277.31;5079209;28;1241;-64
2023/08/05 06:46:53;;;;;;;;;;;;;;;17.34;47.18;100282.06;5097781;28;1180;-63
2023/08/05 06:49:19;;;;;;;;;;;;;;;17.28;47.21;100283.22;5097010;28;1073;-63
2023/08/05 06:51:44;;;;;;;;;;;;;;;17.38;47.11;100291.34;5097189;28;1006;-64
2023/08/05 06:54:11;;;;;;;;;;;;;;;17.35;47.03;100291.09;5097259;28;990;-63
2023/08/05 06:56:37;;;;;;;;;;;;;;;17.43;47.12;100288.56;5096980;28;1975;-64
2023/08/05 06:59:02;;;;;;;;;;;;;;;17.43;46.85;100283.06;5086897;28;1871;-64
2023/08/05 07:01:28;;;;;;;;;;;;;;;17.36;46.95;100282.59;5096716;28;1066;-65
2023/08/05 07:03:53;;;;;;;;;;;;;;;17.40;46.82;100280.91;5097195;28;1181;-66
2023/08/05 07:06:19;;;;;;;;;;;;;;;17.44;46.79;100279.19;5096671;28;1046;-66
2023/08/05 07:08:45;;;;;;;;;;;;;;;17.41;47.09;100278.97;5096406;28;991;-66
2023/08/05 07:11:10;;;;;;;;;;;;;;;17.39;46.94;100281.19;5097112;28;1138;-67
2023/08/05 07:13:36;;;;;;;;;;;;;;;17.41;46.99;100277.03;5096690;28;1153;-66
2023/08/05 07:16:01;;;;;;;;;;;;;;;17.53;46.82;100278.56;5095914;28;1909;-65
2023/08/05 07:18:27;;;;;;;;;;;;;;;17.43;47.04;100280.31;5096314;28;999;-65
2023/08/05 07:20:53;;;;;;;;;;;;;;;17.50;46.95;100276.41;5096427;28;1161;-66
2023/08/05 07:23:18;;;;;;;;;;;;;;;17.43;47.00;100276.75;5096497;28;1061;-66
2023/08/05 07:25:44;;;;;;;;;;;;;;;17.42;47.00;100264.94;5096333;28;1002;-66
2023/08/05 07:28:09;;;;;;;;;;;;;;;17.50;46.82;100265.41;5087286;28;1762;-67
2023/08/05 07:30:35;;;;;;;;;;;;;;;17.50;46.91;100268.16;5088487;28;992;-67
2023/08/05 07:33:04;;;;;;;;;;;;;;;17.48;46.89;100278.63;5096749;28;1169;-67
2023/08/05 07:35:30;;;;;;;;;;;;;;;17.40;46.69;100274.56;5096217;28;1980;-67
2023/08/05 07:37:55;;;;;;;;;;;;;;;17.49;46.96;100285.75;5096910;28;1114;-64
2023/08/05 07:40:22;;;;;;;;;;;;;;;17.48;46.69;100279.44;5095808;28;1075;-64
2023/08/05 07:42:49;;;;;;;;;;;;;;;17.51;46.55;100289.03;5096667;28;1146;-68
2023/08/05 07:45:17;;;;;;;;;;;;;;;17.48;46.67;100286.88;5092867;28;1275;-67
2023/08/05 07:47:44;;;;;;;;;;;;;;;17.52;46.72;100282.44;5095980;28;1114;-68
2023/08/05 07:50:20;;;;;;;;;;;;;;;17.48;46.87;100279.44;5094334;28;1429;-68
2023/08/05 07:52:45;;;;;;;;;;;;;;;17.51;46.63;100267.84;5096142;28;1042;-67
2023/08/05 07:55:11;;;;;;;;;;;;;;;17.55;46.70;100274.41;5095967;28;1975;-63
2023/08/05 07:57:37;;;;;;;;;;;;;;;17.55;46.85;100273.59;5091947;28;2355;-70
2023/08/05 08:00:04;;;;;;;;;;;;;;;17.64;46.56;100277.31;5091988;28;1147;-67
2023/08/05 08:02:38;;;;;;;;;;;;;;;17.56;46.75;100272.50;5095642;28;1006;-67
2023/08/05 08:05:05;;;;;;;;;;;;;;;17.50;46.99;100279.97;5095617;28;1106;-66
2023/08/05 08:07:30;;;;;;;;;;;;;;;17.59;46.80;100278.22;5095905;28;1173;-64
2023/08/05 08:09:56;;;;;;;;;;;;;;;17.57;46.86;100283.19;5095531;28;1033;-63
2023/08/05 08:12:22;;;;;;;;;;;;;;;17.67;46.64;100285.00;5096175;28;1078;-61
2023/08/05 08:14:47;;;;;;;;;;;;;;;17.65;46.64;100283.66;5096249;28;1103;-61
2023/08/05 08:17:13;;;;;;;;;;;;;;;17.60;46.73;100281.78;5087367;28;1990;-64
2023/08/05 08:19:38;;;;;;;;;;;;;;;17.58;46.84;100278.50;5096361;28;1154;-63
2023/08/05 08:22:04;;;;;;;;;;;;;;;17.70;46.71;100281.66;5096204;28;1245;-64
2023/08/05 08:24:29;;;;;;;;;;;;;;;17.70;46.53;100283.59;5095803;28;994;-62
2023/08/05 08:26:55;;;;;;;;;;;;;;;17.68;46.72;100266.56;5095991;28;1079;-69
2023/08/05 08:29:21;;;;;;;;;;;;;;;17.66;46.84;100268.81;5083139;28;2321;-67
2023/08/05 08:31:46;;;;;;;;;;;;;;;17.68;46.56;100275.63;5095649;28;1168;-63
2023/08/05 08:34:12;;;;;;;;;;;;;;;17.62;46.81;100274.88;5095822;28;1031;-60
2023/08/05 08:36:37;;;;;;;;;;;;;;;17.61;47.03;100270.50;5095755;28;1994;-64
2023/08/05 08:39:03;;;;;;;;;;;;;;;17.68;46.89;100278.38;5095437;28;1081;-64
2023/08/05 08:41:29;;;;;;;;;;;;;;;17.74;46.52;100271.72;5095462;28;849;-63
2023/08/05 08:43:55;;;;;;;;;;;;;;;17.65;46.68;100273.47;5077046;28;1060;-66
2023/08/05 08:46:20;;;;;;;;;;;;;;;17.74;46.61;100265.38;5095279;28;1253;-61
2023/08/05 08:48:46;;;;;;;;;;;;;;;17.67;46.63;100260.25;5095549;28;1315;-63
2023/08/05 08:51:12;;;;;;;;;;;;;;;17.66;46.51;100253.13;5095630;28;1122;-61
2023/08/05 08:53:37;;;;;;;;;;;;;;;17.72;46.54;100260.19;5069446;28;884;-62
2023/08/05 08:56:03;;;;;;;;;;;;;;;17.72;46.65;100257.44;5092831;28;1902;-66
2023/08/05 08:58:28;;;;;;;;;;;;;;;17.77;46.58;100249.13;5096819;28;2282;-65
2023/08/05 09:00:54;;;;;;;;;;;;;;;17.86;46.39;100256.72;5099735;28;1055;-60
2023/08/05 09:03:21;;;;;;;;;;;;;;;17.69;46.69;100252.53;5099428;28;1087;-64
2023/08/05 09:05:50;;;;;;;;;;;;;;;17.73;46.61;100248.06;5094915;28;883;-62
2023/08/05 09:08:15;;;;;;;;;;;;;;;17.76;46.58;100236.47;5081245;28;1518;-61
2023/08/05 09:10:43;;;;;;;;;;;;;;;17.81;46.57;100237.53;5081532;28;1166;-65
2023/08/05 09:13:08;;;;;;;;;;;;;;;17.79;46.63;100230.41;5099280;28;1057;-62
2023/08/05 09:15:35;;;;;;;;;;;;;;;17.82;46.49;100234.47;5099555;28;1913;-68
2023/08/05 09:18:03;;;;;;;;;;;;;;;17.75;46.83;100223.88;5098275;28;1062;-66
2023/08/05 09:20:30;;;;;;;;;;;;;;;17.79;46.79;100229.59;5098867;28;1166;-68
2023/08/05 09:22:56;;;;;;;;;;;;;;;17.89;46.64;100234.97;5098711;28;1241;-68
2023/08/05 09:25:21;;;;;;;;;;;;;;;17.84;46.95;100231.44;5098959;28;1270;-67
2023/08/05 09:27:47;;;;;;;;;;;;;;;17.88;46.62;100224.22;5096302;28;2374;-69
2023/08/05 09:30:14;;;;;;;;;;;;;;;17.87;46.44;100208.88;5098479;28;1075;-63
2023/08/05 09:32:39;;;;;;;;;;;;;;;17.87;46.71;100225.38;5098669;28;1177;-65
2023/08/05 09:35:09;;;;;;;;;;;;;;;17.90;46.65;100213.78;5098313;28;1968;-64
2023/08/05 09:37:34;;;;;;;;;;;;;;;17.87;46.86;100219.88;5098303;28;1142;-65
2023/08/05 09:40:05;;;;;;;;;;;;;;;17.82;46.62;100211.69;5080281;28;1390;-66
2023/08/05 09:42:31;;;;;;;;;;;;;;;17.83;46.48;100203.13;5098422;28;975;-64
2023/08/05 09:45:02;;;;;;;;;;;;;;;17.93;46.57;100202.19;5098104;28;1159;-63
2023/08/05 09:47:30;;;;;;;;;;;;;;;17.91;46.54;100201.69;5098444;28;1237;-64
2023/08/05 09:49:56;;;;;;;;;;;;;;;17.84;46.79;100207.53;5098195;28;1219;-66
2023/08/05 09:52:23;;;;;;;;;;;;;;;17.83;46.81;100207.81;5097945;28;1213;-63
2023/08/05 09:55:07;;;;;;;;;;;;;;;17.90;46.78;100213.78;5098283;28;1186;-65
2023/08/05 09:57:33;;;;;;;;;;;;;;;17.91;46.48;100201.69;5077434;28;2361;-64
2023/08/05 09:59:59;;;;;;;;;;;;;;;17.91;46.49;100204.44;5098223;28;1221;-63
2023/08/05 10:02:25;;;;;;;;;;;;;;;17.98;46.42;100199.38;5079238;28;1542;-64
2023/08/05 10:04:54;;;;;;;;;;;;;;;17.92;46.58;100201.38;5097226;28;1084;-66
2023/08/05 10:07:23;;;;;;;;;;;;;;;17.92;46.58;100192.31;5097708;28;1198;-65
2023/08/05 10:09:49;;;;;;;;;;;;;;;17.90;46.92;100189.81;5097603;28;1174;-63
2023/08/05 10:12:16;;;;;;;;;;;;;;;17.95;46.60;100195.28;5097377;28;1159;-63
2023/08/05 10:14:41;;;;;;;;;;;;;;;17.88;47.09;100199.47;5097532;28;1400;-64
2023/08/05 10:17:07;;;;;;;;;;;;;;;17.97;46.63;100197.75;5073481;28;1982;-64
2023/08/05 10:19:33;;;;;;;;;;;;;;;18.02;46.53;100205.94;5090678;28;1058;-65
2023/08/05 10:22:09;;;;;;;;;;;;;;;17.95;46.89;100205.47;5098029;28;1082;-64
2023/08/05 10:24:54;;;;;;;;;;;;;;;17.99;46.77;100192.75;5097787;28;1010;-64
2023/08/05 10:27:35;;;;;;;;;;;;;;;18.03;46.79;100195.72;5098138;28;1836;-63
2023/08/05 10:30:07;;;;;;;;;;;;;;;18.00;46.79;100196.34;5096918;28;1090;-62
2023/08/05 10:32:33;;;;;;;;;;;;;;;18.01;46.69;100192.47;5098422;28;1083;-63
2023/08/05 10:35:31;;;;;;;;;;;;;;;18.04;46.82;100187.19;5097696;28;1177;-64
2023/08/05 10:38:09;;;;;;;;;;;;;;;18.05;46.73;100188.81;5057901;28;1281;-63
2023/08/05 10:40:39;;;;;;;;;;;;;;;18.05;46.58;100194.31;5097425;28;1022;-64
2023/08/05 10:43:05;;;;;;;;;;;;;;;18.06;46.63;100182.22;5096564;28;1114;-64
2023/08/05 10:45:33;;;;;;;;;;;;;;;18.06;46.65;100184.97;5098032;28;1251;-63
2023/08/05 10:47:59;;;;;;;;;;;;;;;18.03;46.69;100180.03;5083879;28;1122;-63
2023/08/05 10:50:26;;;;;;;;;;;;;;;18.08;46.55;100174.47;5078982;28;1206;-65
2023/08/05 10:52:52;;;;;;;;;;;;;;;18.09;46.60;100167.00;5078321;28;1103;-65
2023/08/05 10:55:17;;;;;;;;;;;;;;;18.18;46.11;100169.94;5078302;28;1980;-68
2023/08/05 10:57:44;;;;;;;;;;;;;;;18.12;46.58;100169.19;5077397;28;2343;-68
2023/08/05 11:00:11;;;;;;;;;;;;;;;18.11;46.24;100171.09;5095610;28;1126;-64
2023/08/05 11:02:37;;;;;;;;;;;;;;;18.07;46.36;100167.31;5078436;28;1304;-65
2023/08/05 11:05:07;;;;;;;;;;;;;;;18.18;46.31;100169.94;5077796;28;1277;-65
2023/08/05 11:07:38;;;;;;;;;;;;;;;18.17;46.33;100162.78;5096682;28;1221;-65
2023/08/05 11:10:04;;;;;;;;;;;;;;;18.16;46.39;100163.88;5097011;28;1066;-65
2023/08/05 11:12:30;;;;;;;;;;;;;;;18.11;46.51;100165.59;5096770;28;1089;-65
2023/08/05 11:14:58;;;;;;;;;;;;;;;18.16;46.39;100166.66;5097005;28;1107;-64
2023/08/05 11:17:24;;;;;;;;;;;;;;;18.16;46.52;100158.38;5091929;28;1909;-64
2023/08/05 11:19:50;;;;;;;;;;;;;;;18.24;46.49;100174.22;5088687;28;1063;-66
2023/08/05 11:22:28;;;;;;;;;;;;;;;18.21;46.46;100170.13;5096593;28;1082;-67
2023/08/05 11:24:55;;;;;;;;;;;;;;;18.14;46.63;100161.44;5093047;28;1246;-68
2023/08/05 11:27:27;;;;;;;;;;;;;;;18.21;46.39;100158.31;5094735;28;2169;-64
2023/08/05 11:29:53;;;;;;;;;;;;;;;18.16;46.61;100153.72;5091773;28;1282;-68
2023/08/05 11:32:19;;;;;;;;;;;;;;;18.24;46.49;100142.03;5096609;28;1201;-68
2023/08/05 11:34:45;;;;;;;;;;;;;;;18.17;46.68;100138.81;5096372;28;1217;-66
2023/08/05 11:37:10;;;;;;;;;;;;;;;18.19;46.64;100135.78;5096125;28;1906;-67
2023/08/05 11:39:36;;;;;;;;;;;;;;;18.26;46.49;100136.22;5096073;28;1558;-68
2023/08/05 11:42:01;;;;;;;;;;;;;;;18.23;46.55;100126.63;5095518;28;1206;-66
2023/08/05 11:44:27;;;;;;;;;;;;;;;18.26;46.25;100130.72;5095999;28;1190;-68
2023/08/05 11:46:53;;;;;;;;;;;;;;;18.22;46.56;100129.69;5077866;28;1230;-67
2023/08/05 11:49:18;;;;;;;;;;;;;;;18.26;46.26;100139.78;5095833;28;1282;-66
2023/08/05 11:51:44;;;;;;;;;;;;;;;18.19;46.70;100130.25;5077817;28;1261;-66
2023/08/05 11:54:10;;;;;;;;;;;;;;;18.30;46.13;100126.25;5095859;28;1186;-66
2023/08/05 11:56:35;;;;;;;;;;;;;;;18.23;46.44;100121.13;5096110;28;1985;-64
2023/08/05 11:59:01;;;;;;;;;;;;;;;18.22;46.46;100126.94;5093067;28;1771;-65
2023/08/05 12:01:26;;;;;;;;;;;;;;;18.19;46.59;100122.84;5096234;28;1265;-66
2023/08/05 12:03:52;;;;;;;;;;;;;;;18.26;46.15;100115.03;5096083;28;1293;-66
2023/08/05 12:06:19;;;;;;;;;;;;;;;18.22;46.25;100118.69;5093432;28;1194;-65
2023/08/05 12:08:44;;;;;;;;;;;;;;;18.24;46.33;100109.00;5095463;28;1451;-66
2023/08/05 12:11:12;;;;;;;;;;;;;;;18.21;46.53;100103.28;5095728;28;1210;-66
2023/08/05 12:13:38;;;;;;;;;;;;;;;18.20;46.67;100101.63;5096233;28;1011;-64
2023/08/05 12:16:18;;;;;;;;;;;;;;;18.32;46.30;100104.75;5096218;28;1976;-66
2023/08/05 12:18:44;;;;;;;;;;;;;;;18.32;46.29;100092.91;5095069;28;991;-63
2023/08/05 12:21:10;;;;;;;;;;;;;;;18.28;46.31;100098.19;5095859;28;1252;-65
2023/08/05 12:23:40;;;;;;;;;;;;;;;18.27;46.40;100085.56;5096117;28;1146;-66
2023/08/05 12:26:06;;;;;;;;;;;;;;;18.16;46.66;100081.34;5095864;28;1069;-67
2023/08/05 12:28:32;;;;;;;;;;;;;;;18.23;46.47;100077.09;5085565;28;1688;-66
2023/08/05 12:30:58;;;;;;;;;;;;;;;18.32;46.12;100077.22;5097448;28;893;-66
2023/08/05 12:33:23;;;;;;;;;;;;;;;18.28;46.28;100065.97;5100208;28;1098;-66
2023/08/05 12:35:49;;;;;;;;;;;;;;;18.34;46.02;100072.25;5099781;28;1902;-60
2023/08/05 12:38:15;;;;;;;;;;;;;;;18.21;46.45;100056.50;5100009;28;1090;-64
2023/08/05 12:40:41;;;;;;;;;;;;;;;18.26;46.38;100056.41;5100096;28;1073;-66
2023/08/05 12:43:06;;;;;;;;;;;;;;;18.18;46.42;100054.34;5098844;28;1058;-63